sensor_id;sensor_type;location;lat;lon;timestamp;temperature;humidity
60313;DHT22;46158;52.850;6.970;2023-04-15T00:01:06;16.00;70.60
60313;DHT22;46158;52.850;6.970;2023-04-15T00:03:32;16.00;70.60
60313;DHT22;46158;52.850;6.970;2023-04-15T00:05:58;16.00;70.60
60313;DHT22;46158;52.850;6.970;2023-04-15T00:08:24;16.00;70.60
60313;DHT22;46158;52.850;6.970;2023-04-15T00:10:50;15.90;70.50
60313;DHT22;46158;52.850;6.970;2023-04-15T00:13:15;15.90;70.50
60313;DHT22;46158;52.850;6.970;2023-04-15T00:15:41;15.90;70.50
60313;DHT22;46158;52.850;6.970;2023-04-15T00:18:07;15.90;70.50
60313;DHT22;46158;52.850;6.970;2023-04-15T00:20:33;15.90;70.50
60313;DHT22;46158;52.850;6.970;2023-04-15T00:23:00;15.90;70.50
60313;DHT22;46158;52.850;6.970;2023-04-15T00:25:27;15.90;70.50
60313;DHT22;46158;52.850;6.970;2023-04-15T00:27:53;15.80;70.50
60313;DHT22;46158;52.850;6.970;2023-04-15T00:30:19;15.80;70.50
60313;DHT22;46158;52.850;6.970;2023-04-15T00:32:45;15.80;70.40
60313;DHT22;46158;52.850;6.970;2023-04-15T00:35:11;15.80;70.50
60313;DHT22;46158;52.850;6.970;2023-04-15T00:37:37;15.80;70.40
60313;DHT22;46158;52.850;6.970;2023-04-15T00:40:02;15.80;71.10
60313;DHT22;46158;52.850;6.970;2023-04-15T00:42:30;15.70;70.40
60313;DHT22;46158;52.850;6.970;2023-04-15T00:44:56;15.70;70.50
60313;DHT22;46158;52.850;6.970;2023-04-15T00:47:22;15.70;70.40
60313;DHT22;46158;52.850;6.970;2023-04-15T00:49:47;15.70;70.50
60313;DHT22;46158;52.850;6.970;2023-04-15T00:52:13;15.70;70.40
60313;DHT22;46158;52.850;6.970;2023-04-15T00:54:39;15.70;70.40
60313;DHT22;46158;52.850;6.970;2023-04-15T00:57:05;15.70;70.40
60313;DHT22;46158;52.850;6.970;2023-04-15T00:59:33;15.60;70.30
60313;DHT22;46158;52.850;6.970;2023-04-15T01:01:59;15.60;70.30
60313;DHT22;46158;52.850;6.970;2023-04-15T01:04:24;15.60;70.40
60313;DHT22;46158;52.850;6.970;2023-04-15T01:06:50;15.60;70.40
60313;DHT22;46158;52.850;6.970;2023-04-15T01:09:16;15.60;70.40
60313;DHT22;46158;52.850;6.970;2023-04-15T01:11:42;15.60;70.40
60313;DHT22;46158;52.850;6.970;2023-04-15T01:14:09;15.60;70.40
60313;DHT22;46158;52.850;6.970;2023-04-15T01:16:36;15.50;70.30
60313;DHT22;46158;52.850;6.970;2023-04-15T01:19:06;15.50;70.30
60313;DHT22;46158;52.850;6.970;2023-04-15T01:21:36;15.50;70.30
60313;DHT22;46158;52.850;6.970;2023-04-15T01:24:08;15.50;70.30
60313;DHT22;46158;52.850;6.970;2023-04-15T01:26:36;15.50;70.30
60313;DHT22;46158;52.850;6.970;2023-04-15T01:29:02;15.50;70.30
60313;DHT22;46158;52.850;6.970;2023-04-15T01:31:28;15.50;70.30
60313;DHT22;46158;52.850;6.970;2023-04-15T01:33:54;15.40;70.30
60313;DHT22;46158;52.850;6.970;2023-04-15T01:36:19;15.40;70.30
60313;DHT22;46158;52.850;6.970;2023-04-15T01:38:45;15.40;70.30
60313;DHT22;46158;52.850;6.970;2023-04-15T01:41:13;15.40;70.30
60313;DHT22;46158;52.850;6.970;2023-04-15T01:43:38;15.40;70.30
60313;DHT22;46158;52.850;6.970;2023-04-15T01:46:04;15.40;70.30
60313;DHT22;46158;52.850;6.970;2023-04-15T01:48:31;15.40;70.30
60313;DHT22;46158;52.850;6.970;2023-04-15T01:50:57;15.30;70.20
60313;DHT22;46158;52.850;6.970;2023-04-15T01:53:25;15.40;70.30
60313;DHT22;46158;52.850;6.970;2023-04-15T01:55:51;15.30;70.20
60313;DHT22;46158;52.850;6.970;2023-04-15T01:58:17;15.30;70.20
60313;DHT22;46158;52.850;6.970;2023-04-15T02:00:43;15.30;70.20
60313;DHT22;46158;52.850;6.970;2023-04-15T02:03:09;15.30;70.20
60313;DHT22;46158;52.850;6.970;2023-04-15T02:05:35;15.30;70.20
60313;DHT22;46158;52.850;6.970;2023-04-15T02:08:01;15.30;70.20
60313;DHT22;46158;52.850;6.970;2023-04-15T02:10:28;15.20;70.90
60313;DHT22;46158;52.850;6.970;2023-04-15T02:12:53;15.20;70.20
60313;DHT22;46158;52.850;6.970;2023-04-15T02:15:19;15.20;70.20
60313;DHT22;46158;52.850;6.970;2023-04-15T02:17:45;15.20;70.20
60313;DHT22;46158;52.850;6.970;2023-04-15T02:20:17;15.20;70.20
60313;DHT22;46158;52.850;6.970;2023-04-15T02:22:43;15.10;70.20
60313;DHT22;46158;52.850;6.970;2023-04-15T02:25:09;15.20;70.30
60313;DHT22;46158;52.850;6.970;2023-04-15T02:27:35;15.10;70.20
60313;DHT22;46158;52.850;6.970;2023-04-15T02:30:01;15.10;70.20
60313;DHT22;46158;52.850;6.970;2023-04-15T02:32:27;15.10;70.20
60313;DHT22;46158;52.850;6.970;2023-04-15T02:34:53;15.10;70.20
60313;DHT22;46158;52.850;6.970;2023-04-15T02:37:19;15.10;70.20
60313;DHT22;46158;52.850;6.970;2023-04-15T02:39:45;15.10;70.20
60313;DHT22;46158;52.850;6.970;2023-04-15T02:42:11;15.10;70.20
60313;DHT22;46158;52.850;6.970;2023-04-15T02:44:37;15.00;70.20
60313;DHT22;46158;52.850;6.970;2023-04-15T02:47:04;15.00;70.20
60313;DHT22;46158;52.850;6.970;2023-04-15T02:49:31;15.00;70.20
60313;DHT22;46158;52.850;6.970;2023-04-15T02:51:57;15.00;70.20
60313;DHT22;46158;52.850;6.970;2023-04-15T02:54:25;15.00;70.20
60313;DHT22;46158;52.850;6.970;2023-04-15T02:56:53;15.00;70.20
60313;DHT22;46158;52.850;6.970;2023-04-15T02:59:21;14.90;70.20
60313;DHT22;46158;52.850;6.970;2023-04-15T03:01:47;14.90;70.20
60313;DHT22;46158;52.850;6.970;2023-04-15T03:04:12;14.90;70.20
60313;DHT22;46158;52.850;6.970;2023-04-15T03:06:38;14.90;70.20
60313;DHT22;46158;52.850;6.970;2023-04-15T03:09:04;14.90;70.20
60313;DHT22;46158;52.850;6.970;2023-04-15T03:11:30;14.80;70.20
60313;DHT22;46158;52.850;6.970;2023-04-15T03:13:56;14.90;70.30
60313;DHT22;46158;52.850;6.970;2023-04-15T03:16:23;14.90;70.30
60313;DHT22;46158;52.850;6.970;2023-04-15T03:18:49;14.90;70.30
60313;DHT22;46158;52.850;6.970;2023-04-15T03:21:17;14.80;70.30
60313;DHT22;46158;52.850;6.970;2023-04-15T03:23:44;14.80;70.30
60313;DHT22;46158;52.850;6.970;2023-04-15T03:26:31;14.80;70.30
60313;DHT22;46158;52.850;6.970;2023-04-15T03:28:57;14.80;70.30
60313;DHT22;46158;52.850;6.970;2023-04-15T03:31:23;14.70;70.30
60313;DHT22;46158;52.850;6.970;2023-04-15T03:33:49;14.70;70.30
60313;DHT22;46158;52.850;6.970;2023-04-15T03:36:15;14.70;70.30
60313;DHT22;46158;52.850;6.970;2023-04-15T03:38:41;14.70;70.40
60313;DHT22;46158;52.850;6.970;2023-04-15T03:41:07;14.70;70.30
60313;DHT22;46158;52.850;6.970;2023-04-15T03:43:34;14.70;70.40
60313;DHT22;46158;52.850;6.970;2023-04-15T03:46:00;14.60;71.00
60313;DHT22;46158;52.850;6.970;2023-04-15T03:48:25;14.70;70.40
60313;DHT22;46158;52.850;6.970;2023-04-15T03:50:51;14.70;70.40
60313;DHT22;46158;52.850;6.970;2023-04-15T03:53:18;14.60;70.40
60313;DHT22;46158;52.850;6.970;2023-04-15T03:55:43;14.60;70.40
60313;DHT22;46158;52.850;6.970;2023-04-15T03:58:09;14.60;70.40
60313;DHT22;46158;52.850;6.970;2023-04-15T04:00:37;14.60;70.40
60313;DHT22;46158;52.850;6.970;2023-04-15T04:03:03;14.60;70.40
60313;DHT22;46158;52.850;6.970;2023-04-15T04:05:29;14.50;70.30
60313;DHT22;46158;52.850;6.970;2023-04-15T04:07:55;14.60;70.40
60313;DHT22;46158;52.850;6.970;2023-04-15T04:10:21;14.50;70.30
60313;DHT22;46158;52.850;6.970;2023-04-15T04:12:47;14.50;70.30
60313;DHT22;46158;52.850;6.970;2023-04-15T04:15:13;14.50;70.40
60313;DHT22;46158;52.850;6.970;2023-04-15T04:17:38;14.50;70.40
60313;DHT22;46158;52.850;6.970;2023-04-15T04:20:04;14.50;70.40
60313;DHT22;46158;52.850;6.970;2023-04-15T04:22:36;14.40;70.30
60313;DHT22;46158;52.850;6.970;2023-04-15T04:25:01;14.50;70.50
60313;DHT22;46158;52.850;6.970;2023-04-15T04:27:27;14.40;70.40
60313;DHT22;46158;52.850;6.970;2023-04-15T04:29:53;14.40;70.40
60313;DHT22;46158;52.850;6.970;2023-04-15T04:32:19;14.40;70.40
60313;DHT22;46158;52.850;6.970;2023-04-15T04:34:45;14.40;70.40
60313;DHT22;46158;52.850;6.970;2023-04-15T04:37:11;14.40;70.50
60313;DHT22;46158;52.850;6.970;2023-04-15T04:39:37;14.40;70.50
60313;DHT22;46158;52.850;6.970;2023-04-15T04:42:03;14.40;70.50
60313;DHT22;46158;52.850;6.970;2023-04-15T04:44:29;14.30;70.50
60313;DHT22;46158;52.850;6.970;2023-04-15T04:46:54;14.30;70.50
60313;DHT22;46158;52.850;6.970;2023-04-15T04:49:20;14.30;70.50
60313;DHT22;46158;52.850;6.970;2023-04-15T04:51:46;14.30;70.50
60313;DHT22;46158;52.850;6.970;2023-04-15T04:54:13;14.30;70.50
60313;DHT22;46158;52.850;6.970;2023-04-15T04:56:39;14.30;70.50
60313;DHT22;46158;52.850;6.970;2023-04-15T04:59:05;14.30;70.50
60313;DHT22;46158;52.850;6.970;2023-04-15T05:01:32;14.20;70.50
60313;DHT22;46158;52.850;6.970;2023-04-15T05:03:58;14.20;70.50
60313;DHT22;46158;52.850;6.970;2023-04-15T05:06:24;14.20;70.50
60313;DHT22;46158;52.850;6.970;2023-04-15T05:08:50;14.20;70.50
60313;DHT22;46158;52.850;6.970;2023-04-15T05:11:16;14.20;70.70
60313;DHT22;46158;52.850;6.970;2023-04-15T05:13:44;14.20;70.90
60313;DHT22;46158;52.850;6.970;2023-04-15T05:16:12;14.20;71.00
60313;DHT22;46158;52.850;6.970;2023-04-15T05:18:38;14.20;71.20
60313;DHT22;46158;52.850;6.970;2023-04-15T05:21:04;14.20;71.50
60313;DHT22;46158;52.850;6.970;2023-04-15T05:23:29;14.20;71.70
60313;DHT22;46158;52.850;6.970;2023-04-15T05:25:55;14.20;71.80
60313;DHT22;46158;52.850;6.970;2023-04-15T05:28:21;14.20;72.00
60313;DHT22;46158;52.850;6.970;2023-04-15T05:30:47;14.30;72.10
60313;DHT22;46158;52.850;6.970;2023-04-15T05:33:13;14.30;72.20
60313;DHT22;46158;52.850;6.970;2023-04-15T05:35:38;14.30;72.40
60313;DHT22;46158;52.850;6.970;2023-04-15T05:38:04;14.30;72.40
60313;DHT22;46158;52.850;6.970;2023-04-15T05:40:30;14.30;72.40
60313;DHT22;46158;52.850;6.970;2023-04-15T05:42:56;14.30;72.60
60313;DHT22;46158;52.850;6.970;2023-04-15T05:45:22;14.30;72.70
60313;DHT22;46158;52.850;6.970;2023-04-15T05:47:47;14.30;72.70
60313;DHT22;46158;52.850;6.970;2023-04-15T05:50:15;14.30;72.80
60313;DHT22;46158;52.850;6.970;2023-04-15T05:52:41;14.40;72.90
60313;DHT22;46158;52.850;6.970;2023-04-15T05:55:07;14.30;72.90
60313;DHT22;46158;52.850;6.970;2023-04-15T05:57:33;14.30;72.90
60313;DHT22;46158;52.850;6.970;2023-04-15T05:59:59;14.30;72.90
60313;DHT22;46158;52.850;6.970;2023-04-15T06:02:25;14.40;73.10
60313;DHT22;46158;52.850;6.970;2023-04-15T06:04:50;14.30;73.20
60313;DHT22;46158;52.850;6.970;2023-04-15T06:07:16;14.40;73.20
60313;DHT22;46158;52.850;6.970;2023-04-15T06:09:42;14.40;74.10
60313;DHT22;46158;52.850;6.970;2023-04-15T06:12:09;14.40;73.40
60313;DHT22;46158;52.850;6.970;2023-04-15T06:14:37;14.40;73.50
60313;DHT22;46158;52.850;6.970;2023-04-15T06:17:03;14.40;73.60
60313;DHT22;46158;52.850;6.970;2023-04-15T06:19:29;14.40;73.60
60313;DHT22;46158;52.850;6.970;2023-04-15T06:21:57;14.40;73.60
60313;DHT22;46158;52.850;6.970;2023-04-15T06:24:23;14.40;73.70
60313;DHT22;46158;52.850;6.970;2023-04-15T06:26:49;14.50;73.70
60313;DHT22;46158;52.850;6.970;2023-04-15T06:29:17;14.50;73.80
60313;DHT22;46158;52.850;6.970;2023-04-15T06:31:43;14.40;73.70
60313;DHT22;46158;52.850;6.970;2023-04-15T06:34:09;14.40;73.90
60313;DHT22;46158;52.850;6.970;2023-04-15T06:36:35;14.40;73.90
60313;DHT22;46158;52.850;6.970;2023-04-15T06:39:01;14.50;74.00
60313;DHT22;46158;52.850;6.970;2023-04-15T06:41:27;14.50;74.10
60313;DHT22;46158;52.850;6.970;2023-04-15T06:43:52;14.50;74.10
60313;DHT22;46158;52.850;6.970;2023-04-15T06:46:18;14.50;74.10
60313;DHT22;46158;52.850;6.970;2023-04-15T06:48:44;14.50;74.20
60313;DHT22;46158;52.850;6.970;2023-04-15T06:51:10;14.50;74.30
60313;DHT22;46158;52.850;6.970;2023-04-15T06:53:38;14.50;74.30
60313;DHT22;46158;52.850;6.970;2023-04-15T06:56:08;14.50;74.40
60313;DHT22;46158;52.850;6.970;2023-04-15T06:58:34;14.50;74.40
60313;DHT22;46158;52.850;6.970;2023-04-15T07:01:03;14.50;74.40
60313;DHT22;46158;52.850;6.970;2023-04-15T07:03:35;14.50;74.60
60313;DHT22;46158;52.850;6.970;2023-04-15T07:06:01;14.60;74.70
60313;DHT22;46158;52.850;6.970;2023-04-15T07:08:31;14.50;74.60
60313;DHT22;46158;52.850;6.970;2023-04-15T07:11:00;14.50;74.60
60313;DHT22;46158;52.850;6.970;2023-04-15T07:13:26;14.50;74.70
60313;DHT22;46158;52.850;6.970;2023-04-15T07:15:52;14.60;74.80
60313;DHT22;46158;52.850;6.970;2023-04-15T07:18:17;14.60;74.90
60313;DHT22;46158;52.850;6.970;2023-04-15T07:20:44;14.60;75.60
60313;DHT22;46158;52.850;6.970;2023-04-15T07:23:10;14.60;75.10
60313;DHT22;46158;52.850;6.970;2023-04-15T07:25:35;14.60;75.00
60313;DHT22;46158;52.850;6.970;2023-04-15T07:28:04;14.60;75.00
60313;DHT22;46158;52.850;6.970;2023-04-15T07:30:29;14.60;74.90
60313;DHT22;46158;52.850;6.970;2023-04-15T07:32:55;14.60;74.90
60313;DHT22;46158;52.850;6.970;2023-04-15T07:35:21;14.60;74.80
60313;DHT22;46158;52.850;6.970;2023-04-15T07:37:48;14.70;74.90
60313;DHT22;46158;52.850;6.970;2023-04-15T07:40:14;14.60;74.80
60313;DHT22;46158;52.850;6.970;2023-04-15T07:42:40;14.70;74.90
60313;DHT22;46158;52.850;6.970;2023-04-15T07:45:07;14.70;74.10
60313;DHT22;46158;52.850;6.970;2023-04-15T07:47:33;14.70;73.90
60313;DHT22;46158;52.850;6.970;2023-04-15T07:50:02;14.70;73.80
60313;DHT22;46158;52.850;6.970;2023-04-15T07:52:28;14.60;73.90
60313;DHT22;46158;52.850;6.970;2023-04-15T07:54:55;14.70;74.30
60313;DHT22;46158;52.850;6.970;2023-04-15T07:57:21;14.70;74.50
60313;DHT22;46158;52.850;6.970;2023-04-15T07:59:46;14.70;74.60
60313;DHT22;46158;52.850;6.970;2023-04-15T08:02:12;14.70;74.80
60313;DHT22;46158;52.850;6.970;2023-04-15T08:04:39;14.70;74.80
60313;DHT22;46158;52.850;6.970;2023-04-15T08:07:05;14.70;73.80
60313;DHT22;46158;52.850;6.970;2023-04-15T08:09:31;14.70;73.60
60313;DHT22;46158;52.850;6.970;2023-04-15T08:11:57;14.70;73.90
60313;DHT22;46158;52.850;6.970;2023-04-15T08:14:24;14.80;74.20
60313;DHT22;46158;52.850;6.970;2023-04-15T08:16:55;14.80;74.30
60313;DHT22;46158;52.850;6.970;2023-04-15T08:19:23;14.80;74.30
60313;DHT22;46158;52.850;6.970;2023-04-15T08:21:50;14.80;74.60
60313;DHT22;46158;52.850;6.970;2023-04-15T08:24:16;14.80;74.70
60313;DHT22;46158;52.850;6.970;2023-04-15T08:26:44;14.80;74.80
60313;DHT22;46158;52.850;6.970;2023-04-15T08:29:14;14.80;74.90
60313;DHT22;46158;52.850;6.970;2023-04-15T08:31:41;14.80;74.90
60313;DHT22;46158;52.850;6.970;2023-04-15T08:34:07;14.80;75.10
60313;DHT22;46158;52.850;6.970;2023-04-15T08:36:33;14.80;75.10
60313;DHT22;46158;52.850;6.970;2023-04-15T08:39:02;14.80;75.20
60313;DHT22;46158;52.850;6.970;2023-04-15T08:41:44;14.80;75.30
60313;DHT22;46158;52.850;6.970;2023-04-15T08:44:12;14.90;75.50
60313;DHT22;46158;52.850;6.970;2023-04-15T08:46:38;14.80;75.50
60313;DHT22;46158;52.850;6.970;2023-04-15T08:49:10;14.90;75.50
60313;DHT22;46158;52.850;6.970;2023-04-15T08:51:41;14.90;75.60
60313;DHT22;46158;52.850;6.970;2023-04-15T08:54:08;14.90;75.60
60313;DHT22;46158;52.850;6.970;2023-04-15T08:56:34;14.90;75.60
60313;DHT22;46158;52.850;6.970;2023-04-15T08:59:01;14.90;75.70
60313;DHT22;46158;52.850;6.970;2023-04-15T09:01:28;14.90;75.70
60313;DHT22;46158;52.850;6.970;2023-04-15T09:03:55;14.90;76.20
60313;DHT22;46158;52.850;6.970;2023-04-15T09:06:27;14.90;75.80
60313;DHT22;46158;52.850;6.970;2023-04-15T09:09:15;15.00;75.90
60313;DHT22;46158;52.850;6.970;2023-04-15T09:11:49;15.00;75.80
60313;DHT22;46158;52.850;6.970;2023-04-15T09:14:15;15.00;75.80
60313;DHT22;46158;52.850;6.970;2023-04-15T09:16:59;15.00;75.90
60313;DHT22;46158;52.850;6.970;2023-04-15T09:19:27;15.00;75.80
60313;DHT22;46158;52.850;6.970;2023-04-15T09:21:56;15.00;75.90
60313;DHT22;46158;52.850;6.970;2023-04-15T09:24:34;15.00;75.90
60313;DHT22;46158;52.850;6.970;2023-04-15T09:27:02;15.10;75.90
60313;DHT22;46158;52.850;6.970;2023-04-15T09:29:28;15.10;75.90
60313;DHT22;46158;52.850;6.970;2023-04-15T09:31:54;15.00;75.90
60313;DHT22;46158;52.850;6.970;2023-04-15T09:34:34;15.10;76.10
60313;DHT22;46158;52.850;6.970;2023-04-15T09:37:01;15.10;76.00
60313;DHT22;46158;52.850;6.970;2023-04-15T09:39:31;15.10;76.10
60313;DHT22;46158;52.850;6.970;2023-04-15T09:42:12;15.10;76.10
60313;DHT22;46158;52.850;6.970;2023-04-15T09:44:38;15.10;76.00
60313;DHT22;46158;52.850;6.970;2023-04-15T09:47:05;15.20;76.10
60313;DHT22;46158;52.850;6.970;2023-04-15T09:49:30;15.20;76.00
60313;DHT22;46158;52.850;6.970;2023-04-15T09:52:03;15.20;76.10
60313;DHT22;46158;52.850;6.970;2023-04-15T09:54:36;15.20;76.00
60313;DHT22;46158;52.850;6.970;2023-04-15T09:57:06;15.20;76.00
60313;DHT22;46158;52.850;6.970;2023-04-15T09:59:43;15.20;76.00
60313;DHT22;46158;52.850;6.970;2023-04-15T10:02:12;15.20;76.00
60313;DHT22;46158;52.850;6.970;2023-04-15T10:05:01;15.20;76.00
60313;DHT22;46158;52.850;6.970;2023-04-15T10:07:26;15.20;76.00
60313;DHT22;46158;52.850;6.970;2023-04-15T10:09:52;15.30;76.10
60313;DHT22;46158;52.850;6.970;2023-04-15T10:12:19;15.30;76.00
60313;DHT22;46158;52.850;6.970;2023-04-15T10:15:00;15.30;76.00
60313;DHT22;46158;52.850;6.970;2023-04-15T10:17:33;15.30;76.00
60313;DHT22;46158;52.850;6.970;2023-04-15T10:20:03;15.40;76.10
60313;DHT22;46158;52.850;6.970;2023-04-15T10:22:30;15.30;76.00
60313;DHT22;46158;52.850;6.970;2023-04-15T10:24:56;15.40;76.10
60313;DHT22;46158;52.850;6.970;2023-04-15T10:27:23;15.40;76.10
60313;DHT22;46158;52.850;6.970;2023-04-15T10:29:52;15.40;76.00
60313;DHT22;46158;52.850;6.970;2023-04-15T10:32:19;15.40;74.80
60313;DHT22;46158;52.850;6.970;2023-04-15T10:34:47;15.40;74.70
60313;DHT22;46158;52.850;6.970;2023-04-15T10:37:32;15.40;74.70
60313;DHT22;46158;52.850;6.970;2023-04-15T10:39:58;15.40;74.70
60313;DHT22;46158;52.850;6.970;2023-04-15T10:42:33;15.40;74.80
60313;DHT22;46158;52.850;6.970;2023-04-15T10:45:02;15.50;74.80
60313;DHT22;46158;52.850;6.970;2023-04-15T10:47:32;15.50;74.80
60313;DHT22;46158;52.850;6.970;2023-04-15T10:50:47;15.50;74.70
60313;DHT22;46158;52.850;6.970;2023-04-15T10:53:02;15.50;74.70
60313;DHT22;46158;52.850;6.970;2023-04-15T10:55:33;15.50;74.70
60313;DHT22;46158;52.850;6.970;2023-04-15T10:58:00;15.50;74.80
60313;DHT22;46158;52.850;6.970;2023-04-15T11:00:36;15.50;74.90
60313;DHT22;46158;52.850;6.970;2023-04-15T11:03:07;15.50;74.80
60313;DHT22;46158;52.850;6.970;2023-04-15T11:05:50;15.50;74.90
60313;DHT22;46158;52.850;6.970;2023-04-15T11:08:53;15.50;74.90
60313;DHT22;46158;52.850;6.970;2023-04-15T11:14:33;15.50;74.90
60313;DHT22;46158;52.850;6.970;2023-04-15T11:17:03;15.50;75.70
60313;DHT22;46158;52.850;6.970;2023-04-15T11:19:38;15.50;74.90
60313;DHT22;46158;52.850;6.970;2023-04-15T11:22:17;15.50;74.80
60313;DHT22;46158;52.850;6.970;2023-04-15T11:24:49;15.50;74.80
60313;DHT22;46158;52.850;6.970;2023-04-15T11:27:22;15.50;74.80
60313;DHT22;46158;52.850;6.970;2023-04-15T11:29:48;15.50;74.70
60313;DHT22;46158;52.850;6.970;2023-04-15T11:32:14;15.50;74.70
60313;DHT22;46158;52.850;6.970;2023-04-15T11:34:40;15.50;74.70
60313;DHT22;46158;52.850;6.970;2023-04-15T11:37:09;15.50;74.70
60313;DHT22;46158;52.850;6.970;2023-04-15T11:39:36;15.50;74.10
60313;DHT22;46158;52.850;6.970;2023-04-15T11:42:02;15.50;73.60
60313;DHT22;46158;52.850;6.970;2023-04-15T11:44:28;15.50;73.60
60313;DHT22;46158;52.850;6.970;2023-04-15T11:46:54;15.50;72.80
60313;DHT22;46158;52.850;6.970;2023-04-15T11:49:29;15.50;72.00
60313;DHT22;46158;52.850;6.970;2023-04-15T11:51:55;15.50;72.00
60313;DHT22;46158;52.850;6.970;2023-04-15T11:54:22;15.50;72.20
60313;DHT22;46158;52.850;6.970;2023-04-15T11:56:51;15.50;72.50
60313;DHT22;46158;52.850;6.970;2023-04-15T11:59:18;15.50;72.70
60313;DHT22;46158;52.850;6.970;2023-04-15T12:01:49;15.50;71.80
60313;DHT22;46158;52.850;6.970;2023-04-15T12:04:17;15.50;71.20
60313;DHT22;46158;52.850;6.970;2023-04-15T12:07:04;15.40;71.10
60313;DHT22;46158;52.850;6.970;2023-04-15T12:09:36;15.40;71.10
60313;DHT22;46158;52.850;6.970;2023-04-15T12:12:06;15.40;71.10
60313;DHT22;46158;52.850;6.970;2023-04-15T12:14:35;15.30;71.10
60313;DHT22;46158;52.850;6.970;2023-04-15T12:17:04;15.30;70.90
60313;DHT22;46158;52.850;6.970;2023-04-15T12:19:35;15.30;71.00
60313;DHT22;46158;52.850;6.970;2023-04-15T12:22:08;15.30;70.90
60313;DHT22;46158;52.850;6.970;2023-04-15T12:24:40;15.30;70.90
60313;DHT22;46158;52.850;6.970;2023-04-15T12:27:10;15.30;71.00
60313;DHT22;46158;52.850;6.970;2023-04-15T12:29:42;15.20;70.90
60313;DHT22;46158;52.850;6.970;2023-04-15T12:32:15;15.20;70.80
60313;DHT22;46158;52.850;6.970;2023-04-15T12:34:49;15.20;71.10
60313;DHT22;46158;52.850;6.970;2023-04-15T12:37:22;15.30;71.40
60313;DHT22;46158;52.850;6.970;2023-04-15T12:39:51;15.30;71.60
60313;DHT22;46158;52.850;6.970;2023-04-15T12:42:20;15.20;71.70
60313;DHT22;46158;52.850;6.970;2023-04-15T12:44:47;15.30;71.90
60313;DHT22;46158;52.850;6.970;2023-04-15T12:47:13;15.30;72.00
60313;DHT22;46158;52.850;6.970;2023-04-15T12:49:39;15.30;72.10
60313;DHT22;46158;52.850;6.970;2023-04-15T12:52:05;15.30;72.20
60313;DHT22;46158;52.850;6.970;2023-04-15T12:54:38;15.30;72.30
60313;DHT22;46158;52.850;6.970;2023-04-15T12:57:04;15.30;72.40
60313;DHT22;46158;52.850;6.970;2023-04-15T12:59:30;15.30;72.40
60313;DHT22;46158;52.850;6.970;2023-04-15T13:01:56;15.30;72.40
60313;DHT22;46158;52.850;6.970;2023-04-15T13:04:26;15.30;72.50
60313;DHT22;46158;52.850;6.970;2023-04-15T13:06:55;15.30;72.50
60313;DHT22;46158;52.850;6.970;2023-04-15T13:09:21;15.40;72.60
60313;DHT22;46158;52.850;6.970;2023-04-15T13:11:48;15.30;72.60
60313;DHT22;46158;52.850;6.970;2023-04-15T13:14:15;15.40;72.70
60313;DHT22;46158;52.850;6.970;2023-04-15T13:16:42;15.40;72.70
60313;DHT22;46158;52.850;6.970;2023-04-15T13:19:17;15.40;72.80
60313;DHT22;46158;52.850;6.970;2023-04-15T13:21:53;15.40;72.80
60313;DHT22;46158;52.850;6.970;2023-04-15T13:24:19;15.40;72.80
60313;DHT22;46158;52.850;6.970;2023-04-15T13:27:06;15.40;72.80
60313;DHT22;46158;52.850;6.970;2023-04-15T13:29:35;15.40;72.90
60313;DHT22;46158;52.850;6.970;2023-04-15T13:32:04;15.40;73.00
60313;DHT22;46158;52.850;6.970;2023-04-15T13:34:34;15.40;72.90
60313;DHT22;46158;52.850;6.970;2023-04-15T13:37:18;15.40;72.90
60313;DHT22;46158;52.850;6.970;2023-04-15T13:39:44;15.40;72.90
60313;DHT22;46158;52.850;6.970;2023-04-15T13:42:10;15.40;73.00
60313;DHT22;46158;52.850;6.970;2023-04-15T13:44:39;15.40;73.00
60313;DHT22;46158;52.850;6.970;2023-04-15T13:47:15;15.50;73.00
60313;DHT22;46158;52.850;6.970;2023-04-15T13:49:41;15.50;73.00
60313;DHT22;46158;52.850;6.970;2023-04-15T13:52:07;15.50;73.10
60313;DHT22;46158;52.850;6.970;2023-04-15T13:54:32;15.50;73.10
60313;DHT22;46158;52.850;6.970;2023-04-15T13:56:58;15.50;73.10
60313;DHT22;46158;52.850;6.970;2023-04-15T13:59:24;15.50;73.20
60313;DHT22;46158;52.850;6.970;2023-04-15T14:01:51;15.50;73.10
60313;DHT22;46158;52.850;6.970;2023-04-15T14:04:17;15.50;73.10
60313;DHT22;46158;52.850;6.970;2023-04-15T14:06:43;15.50;73.10
60313;DHT22;46158;52.850;6.970;2023-04-15T14:09:09;15.50;73.00
60313;DHT22;46158;52.850;6.970;2023-04-15T14:11:37;15.50;73.00
60313;DHT22;46158;52.850;6.970;2023-04-15T14:14:03;15.50;73.00
60313;DHT22;46158;52.850;6.970;2023-04-15T14:16:31;15.50;73.00
60313;DHT22;46158;52.850;6.970;2023-04-15T14:18:58;15.50;72.90
60313;DHT22;46158;52.850;6.970;2023-04-15T14:21:25;15.50;72.80
60313;DHT22;46158;52.850;6.970;2023-04-15T14:23:52;15.50;72.80
60313;DHT22;46158;52.850;6.970;2023-04-15T14:26:18;15.50;72.80
60313;DHT22;46158;52.850;6.970;2023-04-15T14:28:44;15.50;72.80
60313;DHT22;46158;52.850;6.970;2023-04-15T14:31:11;15.50;72.90
60313;DHT22;46158;52.850;6.970;2023-04-15T14:33:38;15.50;73.00
60313;DHT22;46158;52.850;6.970;2023-04-15T14:36:05;15.50;73.00
60313;DHT22;46158;52.850;6.970;2023-04-15T14:38:34;15.50;73.00
60313;DHT22;46158;52.850;6.970;2023-04-15T14:41:07;15.50;73.10
60313;DHT22;46158;52.850;6.970;2023-04-15T14:43:37;15.50;73.10
60313;DHT22;46158;52.850;6.970;2023-04-15T14:46:03;15.50;72.80
60313;DHT22;46158;52.850;6.970;2023-04-15T14:48:30;15.50;72.40
60313;DHT22;46158;52.850;6.970;2023-04-15T14:50:58;15.50;72.10
60313;DHT22;46158;52.850;6.970;2023-04-15T14:53:25;15.40;71.90
60313;DHT22;46158;52.850;6.970;2023-04-15T14:55:53;15.40;72.00
60313;DHT22;46158;52.850;6.970;2023-04-15T14:58:21;15.40;72.20
60313;DHT22;46158;52.850;6.970;2023-04-15T15:00:48;15.50;72.40
60313;DHT22;46158;52.850;6.970;2023-04-15T15:03:14;15.40;72.50
60313;DHT22;46158;52.850;6.970;2023-04-15T15:05:41;15.50;72.60
60313;DHT22;46158;52.850;6.970;2023-04-15T15:08:07;15.50;72.70
60313;DHT22;46158;52.850;6.970;2023-04-15T15:10:34;15.50;72.70
60313;DHT22;46158;52.850;6.970;2023-04-15T15:13:07;15.50;72.80
60313;DHT22;46158;52.850;6.970;2023-04-15T15:15:33;15.50;72.80
60313;DHT22;46158;52.850;6.970;2023-04-15T15:18:00;15.50;72.80
60313;DHT22;46158;52.850;6.970;2023-04-15T15:20:30;15.50;72.90
60313;DHT22;46158;52.850;6.970;2023-04-15T15:22:59;15.50;72.90
60313;DHT22;46158;52.850;6.970;2023-04-15T15:25:25;15.50;73.00
60313;DHT22;46158;52.850;6.970;2023-04-15T15:27:51;15.50;73.70
60313;DHT22;46158;52.850;6.970;2023-04-15T15:30:16;15.60;73.20
60313;DHT22;46158;52.850;6.970;2023-04-15T15:32:42;15.60;73.20
60313;DHT22;46158;52.850;6.970;2023-04-15T15:35:10;15.50;73.10
60313;DHT22;46158;52.850;6.970;2023-04-15T15:37:37;15.60;73.00